sensor_id;sensor_type;location;lat;lon;timestamp;P1;durP1;ratioP1;P2;durP2;ratioP2
26989;SDS011;14537;47.788;11.858;2023-04-29T00:00:06;0.00;;;0.00;;
26989;SDS011;14537;47.788;11.858;2023-04-29T00:02:32;0.40;;;0.30;;
26989;SDS011;14537;47.788;11.858;2023-04-29T00:04:58;0.17;;;0.17;;
26989;SDS011;14537;47.788;11.858;2023-04-29T00:07:24;0.30;;;0.20;;
26989;SDS011;14537;47.788;11.858;2023-04-29T00:09:49;2.17;;;0.20;;
26989;SDS011;14537;47.788;11.858;2023-04-29T00:12:15;0.68;;;0.20;;
26989;SDS011;14537;47.788;11.858;2023-04-29T00:14:41;0.40;;;0.40;;
26989;SDS011;14537;47.788;11.858;2023-04-29T00:17:07;0.30;;;0.30;;
26989;SDS011;14537;47.788;11.858;2023-04-29T00:19:33;1.23;;;0.20;;
26989;SDS011;14537;47.788;11.858;2023-04-29T00:21:59;0.35;;;0.20;;
26989;SDS011;14537;47.788;11.858;2023-04-29T00:24:25;0.75;;;0.35;;
26989;SDS011;14537;47.788;11.858;2023-04-29T00:26:51;0.63;;;0.45;;
26989;SDS011;14537;47.788;11.858;2023-04-29T00:29:17;0.47;;;0.30;;
26989;SDS011;14537;47.788;11.858;2023-04-29T00:31:43;2.40;;;0.40;;
26989;SDS011;14537;47.788;11.858;2023-04-29T00:34:09;1.45;;;0.32;;
26989;SDS011;14537;47.788;11.858;2023-04-29T00:36:35;0.38;;;0.28;;
26989;SDS011;14537;47.788;11.858;2023-04-29T00:39:00;0.47;;;0.28;;
26989;SDS011;14537;47.788;11.858;2023-04-29T00:41:28;0.57;;;0.30;;
26989;SDS011;14537;47.788;11.858;2023-04-29T00:43:55;0.40;;;0.20;;
26989;SDS011;14537;47.788;11.858;2023-04-29T00:46:21;1.13;;;0.30;;
26989;SDS011;14537;47.788;11.858;2023-04-29T00:48:47;2.63;;;0.20;;
26989;SDS011;14537;47.788;11.858;2023-04-29T00:51:13;0.20;;;0.20;;
26989;SDS011;14537;47.788;11.858;2023-04-29T00:53:41;0.30;;;0.30;;
26989;SDS011;14537;47.788;11.858;2023-04-29T00:56:07;0.20;;;0.20;;
26989;SDS011;14537;47.788;11.858;2023-04-29T00:58:34;0.30;;;0.30;;
26989;SDS011;14537;47.788;11.858;2023-04-29T01:01:00;0.50;;;0.20;;
26989;SDS011;14537;47.788;11.858;2023-04-29T01:03:28;0.30;;;0.30;;
26989;SDS011;14537;47.788;11.858;2023-04-29T01:06:07;0.45;;;0.22;;
26989;SDS011;14537;47.788;11.858;2023-04-29T01:11:27;0.10;;;0.10;;
26989;SDS011;14537;47.788;11.858;2023-04-29T01:13:59;0.20;;;0.20;;
26989;SDS011;14537;47.788;11.858;2023-04-29T01:16:29;0.50;;;0.32;;
26989;SDS011;14537;47.788;11.858;2023-04-29T01:19:05;0.93;;;0.43;;
26989;SDS011;14537;47.788;11.858;2023-04-29T01:21:50;0.65;;;0.30;;
26989;SDS011;14537;47.788;11.858;2023-04-29T01:24:15;0.70;;;0.40;;
26989;SDS011;14537;47.788;11.858;2023-04-29T01:26:42;0.20;;;0.20;;
26989;SDS011;14537;47.788;11.858;2023-04-29T01:29:33;1.70;;;0.50;;
26989;SDS011;14537;47.788;11.858;2023-04-29T01:32:08;0.93;;;0.50;;
26989;SDS011;14537;47.788;11.858;2023-04-29T01:35:03;0.57;;;0.40;;
26989;SDS011;14537;47.788;11.858;2023-04-29T01:37:48;0.52;;;0.40;;
26989;SDS011;14537;47.788;11.858;2023-04-29T01:40:23;0.20;;;0.20;;
26989;SDS011;14537;47.788;11.858;2023-04-29T01:43:01;0.40;;;0.20;;
26989;SDS011;14537;47.788;11.858;2023-04-29T01:45:29;0.35;;;0.35;;
26989;SDS011;14537;47.788;11.858;2023-04-29T01:47:58;0.13;;;0.10;;
26989;SDS011;14537;47.788;11.858;2023-04-29T01:50:24;1.75;;;0.20;;
26989;SDS011;14537;47.788;11.858;2023-04-29T01:52:50;0.68;;;0.30;;
26989;SDS011;14537;47.788;11.858;2023-04-29T01:55:16;0.20;;;0.20;;
26989;SDS011;14537;47.788;11.858;2023-04-29T01:57:42;0.25;;;0.22;;
26989;SDS011;14537;47.788;11.858;2023-04-29T02:00:08;0.30;;;0.20;;
26989;SDS011;14537;47.788;11.858;2023-04-29T02:02:35;0.08;;;0.00;;
26989;SDS011;14537;47.788;11.858;2023-04-29T02:05:01;4.43;;;0.60;;
26989;SDS011;14537;47.788;11.858;2023-04-29T02:07:26;1.40;;;0.45;;
26989;SDS011;14537;47.788;11.858;2023-04-29T02:09:52;0.38;;;0.30;;
26989;SDS011;14537;47.788;11.858;2023-04-29T02:12:18;0.40;;;0.30;;
26989;SDS011;14537;47.788;11.858;2023-04-29T02:14:44;0.63;;;0.30;;
26989;SDS011;14537;47.788;11.858;2023-04-29T02:17:11;0.22;;;0.20;;
26989;SDS011;14537;47.788;11.858;2023-04-29T02:19:37;0.32;;;0.30;;
26989;SDS011;14537;47.788;11.858;2023-04-29T02:22:03;0.43;;;0.35;;
26989;SDS011;14537;47.788;11.858;2023-04-29T02:24:29;1.02;;;0.35;;
26989;SDS011;14537;47.788;11.858;2023-04-29T02:26:54;0.55;;;0.40;;
26989;SDS011;14537;47.788;11.858;2023-04-29T02:29:21;0.40;;;0.30;;
26989;SDS011;14537;47.788;11.858;2023-04-29T02:31:46;0.20;;;0.20;;
26989;SDS011;14537;47.788;11.858;2023-04-29T02:34:12;0.25;;;0.25;;
26989;SDS011;14537;47.788;11.858;2023-04-29T02:36:37;0.22;;;0.20;;
26989;SDS011;14537;47.788;11.858;2023-04-29T02:39:03;0.10;;;0.10;;
26989;SDS011;14537;47.788;11.858;2023-04-29T02:41:29;0.60;;;0.22;;
26989;SDS011;14537;47.788;11.858;2023-04-29T02:43:54;0.47;;;0.32;;
26989;SDS011;14537;47.788;11.858;2023-04-29T02:46:20;0.28;;;0.28;;
26989;SDS011;14537;47.788;11.858;2023-04-29T02:48:46;2.88;;;0.40;;
26989;SDS011;14537;47.788;11.858;2023-04-29T02:51:11;0.35;;;0.35;;
26989;SDS011;14537;47.788;11.858;2023-04-29T02:53:37;0.40;;;0.40;;
26989;SDS011;14537;47.788;11.858;2023-04-29T02:56:02;5.68;;;1.25;;
26989;SDS011;14537;47.788;11.858;2023-04-29T02:58:29;37.10;;;8.52;;
26989;SDS011;14537;47.788;11.858;2023-04-29T03:00:54;20.92;;;5.80;;
26989;SDS011;14537;47.788;11.858;2023-04-29T03:03:20;19.65;;;4.75;;
26989;SDS011;14537;47.788;11.858;2023-04-29T03:05:47;10.77;;;3.22;;
26989;SDS011;14537;47.788;11.858;2023-04-29T03:08:12;6.72;;;2.17;;
26989;SDS011;14537;47.788;11.858;2023-04-29T03:10:38;3.75;;;1.00;;
26989;SDS011;14537;47.788;11.858;2023-04-29T03:13:03;3.40;;;1.20;;
26989;SDS011;14537;47.788;11.858;2023-04-29T03:15:29;3.92;;;1.17;;
26989;SDS011;14537;47.788;11.858;2023-04-29T03:17:55;4.32;;;1.60;;
26989;SDS011;14537;47.788;11.858;2023-04-29T03:20:20;4.47;;;1.00;;
26989;SDS011;14537;47.788;11.858;2023-04-29T03:22:46;2.10;;;1.10;;
26989;SDS011;14537;47.788;11.858;2023-04-29T03:25:12;1.80;;;1.00;;
26989;SDS011;14537;47.788;11.858;2023-04-29T03:27:37;6.00;;;0.70;;
26989;SDS011;14537;47.788;11.858;2023-04-29T03:30:03;2.45;;;1.08;;
26989;SDS011;14537;47.788;11.858;2023-04-29T03:32:30;3.97;;;1.30;;
26989;SDS011;14537;47.788;11.858;2023-04-29T03:34:56;1.23;;;0.75;;
26989;SDS011;14537;47.788;11.858;2023-04-29T03:37:22;2.53;;;0.90;;
26989;SDS011;14537;47.788;11.858;2023-04-29T03:39:47;1.05;;;0.77;;
26989;SDS011;14537;47.788;11.858;2023-04-29T03:42:13;1.92;;;1.02;;
26989;SDS011;14537;47.788;11.858;2023-04-29T03:44:38;1.20;;;0.85;;
26989;SDS011;14537;47.788;11.858;2023-04-29T03:47:04;1.23;;;0.82;;
26989;SDS011;14537;47.788;11.858;2023-04-29T03:49:30;1.05;;;0.80;;
26989;SDS011;14537;47.788;11.858;2023-04-29T03:51:56;0.80;;;0.80;;
26989;SDS011;14537;47.788;11.858;2023-04-29T03:54:22;0.50;;;0.50;;
26989;SDS011;14537;47.788;11.858;2023-04-29T03:56:47;3.88;;;0.80;;
26989;SDS011;14537;47.788;11.858;2023-04-29T03:59:13;1.98;;;0.80;;
26989;SDS011;14537;47.788;11.858;2023-04-29T04:01:38;1.50;;;0.88;;
26989;SDS011;14537;47.788;11.858;2023-04-29T04:04:05;2.33;;;0.82;;
26989;SDS011;14537;47.788;11.858;2023-04-29T04:06:30;0.93;;;0.70;;
26989;SDS011;14537;47.788;11.858;2023-04-29T04:08:56;0.70;;;0.70;;
26989;SDS011;14537;47.788;11.858;2023-04-29T04:11:21;0.77;;;0.77;;
26989;SDS011;14537;47.788;11.858;2023-04-29T04:13:47;1.20;;;1.00;;
26989;SDS011;14537;47.788;11.858;2023-04-29T04:16:13;4.25;;;1.50;;
26989;SDS011;14537;47.788;11.858;2023-04-29T04:18:39;1.90;;;1.20;;
26989;SDS011;14537;47.788;11.858;2023-04-29T04:21:06;2.17;;;1.20;;
26989;SDS011;14537;47.788;11.858;2023-04-29T04:23:32;4.57;;;1.10;;
26989;SDS011;14537;47.788;11.858;2023-04-29T04:25:58;1.80;;;0.98;;
26989;SDS011;14537;47.788;11.858;2023-04-29T04:28:23;1.25;;;0.82;;
26989;SDS011;14537;47.788;11.858;2023-04-29T04:30:49;0.73;;;0.68;;
26989;SDS011;14537;47.788;11.858;2023-04-29T04:33:15;0.93;;;0.73;;
26989;SDS011;14537;47.788;11.858;2023-04-29T04:35:41;1.00;;;0.75;;
26989;SDS011;14537;47.788;11.858;2023-04-29T04:38:07;1.20;;;0.80;;
26989;SDS011;14537;47.788;11.858;2023-04-29T04:40:33;3.00;;;1.08;;
26989;SDS011;14537;47.788;11.858;2023-04-29T04:42:59;1.17;;;0.77;;
26989;SDS011;14537;47.788;11.858;2023-04-29T04:45:24;1.15;;;0.93;;
26989;SDS011;14537;47.788;11.858;2023-04-29T04:47:52;1.00;;;0.80;;
26989;SDS011;14537;47.788;11.858;2023-04-29T04:50:18;2.20;;;0.93;;
26989;SDS011;14537;47.788;11.858;2023-04-29T04:52:44;1.45;;;0.90;;
26989;SDS011;14537;47.788;11.858;2023-04-29T04:55:10;0.68;;;0.63;;
26989;SDS011;14537;47.788;11.858;2023-04-29T04:57:35;1.17;;;0.77;;
26989;SDS011;14537;47.788;11.858;2023-04-29T05:00:01;3.65;;;0.95;;
26989;SDS011;14537;47.788;11.858;2023-04-29T05:02:28;2.90;;;1.42;;
26989;SDS011;14537;47.788;11.858;2023-04-29T05:04:53;1.58;;;0.93;;
26989;SDS011;14537;47.788;11.858;2023-04-29T05:07:19;1.95;;;1.00;;
26989;SDS011;14537;47.788;11.858;2023-04-29T05:09:45;1.00;;;0.85;;
26989;SDS011;14537;47.788;11.858;2023-04-29T05:12:10;1.05;;;0.73;;
26989;SDS011;14537;47.788;11.858;2023-04-29T05:14:36;0.70;;;0.63;;
26989;SDS011;14537;47.788;11.858;2023-04-29T05:17:02;1.02;;;0.88;;
26989;SDS011;14537;47.788;11.858;2023-04-29T05:19:27;1.73;;;1.00;;
26989;SDS011;14537;47.788;11.858;2023-04-29T05:21:53;1.50;;;0.80;;
26989;SDS011;14537;47.788;11.858;2023-04-29T05:24:18;1.27;;;0.80;;
26989;SDS011;14537;47.788;11.858;2023-04-29T05:26:44;0.77;;;0.77;;
26989;SDS011;14537;47.788;11.858;2023-04-29T05:29:10;0.80;;;0.75;;
26989;SDS011;14537;47.788;11.858;2023-04-29T05:31:36;0.80;;;0.80;;
26989;SDS011;14537;47.788;11.858;2023-04-29T05:34:03;0.95;;;0.75;;
26989;SDS011;14537;47.788;11.858;2023-04-29T05:36:28;1.60;;;0.80;;
26989;SDS011;14537;47.788;11.858;2023-04-29T05:38:54;1.08;;;0.73;;
26989;SDS011;14537;47.788;11.858;2023-04-29T05:41:20;1.33;;;0.98;;
26989;SDS011;14537;47.788;11.858;2023-04-29T05:43:48;1.92;;;1.00;;
26989;SDS011;14537;47.788;11.858;2023-04-29T05:46:13;0.77;;;0.70;;
26989;SDS011;14537;47.788;11.858;2023-04-29T05:48:40;2.22;;;1.20;;
26989;SDS011;14537;47.788;11.858;2023-04-29T05:51:06;1.30;;;0.98;;
26989;SDS011;14537;47.788;11.858;2023-04-29T05:53:31;0.65;;;0.65;;
26989;SDS011;14537;47.788;11.858;2023-04-29T05:55:57;1.02;;;0.70;;
26989;SDS011;14537;47.788;11.858;2023-04-29T05:58:23;1.40;;;0.90;;
26989;SDS011;14537;47.788;11.858;2023-04-29T06:00:50;1.20;;;0.75;;
26989;SDS011;14537;47.788;11.858;2023-04-29T06:03:15;0.85;;;0.80;;
26989;SDS011;14537;47.788;11.858;2023-04-29T06:05:41;1.10;;;0.60;;
26989;SDS011;14537;47.788;11.858;2023-04-29T06:08:07;1.67;;;0.70;;
26989;SDS011;14537;47.788;11.858;2023-04-29T06:10:32;0.70;;;0.55;;
26989;SDS011;14537;47.788;11.858;2023-04-29T06:12:58;3.47;;;0.95;;
26989;SDS011;14537;47.788;11.858;2023-04-29T06:15:24;1.30;;;0.90;;
26989;SDS011;14537;47.788;11.858;2023-04-29T06:17:49;1.20;;;0.80;;
26989;SDS011;14537;47.788;11.858;2023-04-29T06:20:16;0.63;;;0.50;;
26989;SDS011;14537;47.788;11.858;2023-04-29T06:22:41;2.08;;;0.70;;
26989;SDS011;14537;47.788;11.858;2023-04-29T06:25:07;2.63;;;0.57;;
26989;SDS011;14537;47.788;11.858;2023-04-29T06:27:33;2.08;;;0.70;;
26989;SDS011;14537;47.788;11.858;2023-04-29T06:29:59;1.63;;;0.70;;
26989;SDS011;14537;47.788;11.858;2023-04-29T06:32:25;1.73;;;0.77;;
26989;SDS011;14537;47.788;11.858;2023-04-29T06:34:51;0.98;;;0.70;;
26989;SDS011;14537;47.788;11.858;2023-04-29T06:37:16;1.63;;;0.93;;
26989;SDS011;14537;47.788;11.858;2023-04-29T06:39:42;2.25;;;1.00;;
26989;SDS011;14537;47.788;11.858;2023-04-29T06:42:07;1.33;;;0.93;;
26989;SDS011;14537;47.788;11.858;2023-04-29T06:44:34;1.83;;;0.98;;
26989;SDS011;14537;47.788;11.858;2023-04-29T06:46:59;0.85;;;0.70;;
26989;SDS011;14537;47.788;11.858;2023-04-29T06:49:25;2.75;;;0.90;;
26989;SDS011;14537;47.788;11.858;2023-04-29T06:51:50;0.80;;;0.80;;
26989;SDS011;14537;47.788;11.858;2023-04-29T06:54:16;0.82;;;0.60;;
26989;SDS011;14537;47.788;11.858;2023-04-29T06:56:42;1.10;;;0.80;;
26989;SDS011;14537;47.788;11.858;2023-04-29T06:59:07;1.50;;;0.77;;
26989;SDS011;14537;47.788;11.858;2023-04-29T07:01:36;1.45;;;0.90;;
26989;SDS011;14537;47.788;11.858;2023-04-29T07:04:01;3.15;;;0.90;;
26989;SDS011;14537;47.788;11.858;2023-04-29T07:06:28;1.25;;;0.68;;
26989;SDS011;14537;47.788;11.858;2023-04-29T07:08:53;3.85;;;0.75;;
26989;SDS011;14537;47.788;11.858;2023-04-29T07:11:19;2.75;;;1.30;;
26989;SDS011;14537;47.788;11.858;2023-04-29T07:13:44;1.25;;;0.77;;
26989;SDS011;14537;47.788;11.858;2023-04-29T07:16:14;1.88;;;0.70;;
26989;SDS011;14537;47.788;11.858;2023-04-29T07:18:41;1.27;;;0.70;;
26989;SDS011;14537;47.788;11.858;2023-04-29T07:21:07;0.60;;;0.60;;
26989;SDS011;14537;47.788;11.858;2023-04-29T07:23:33;2.58;;;0.85;;
26989;SDS011;14537;47.788;11.858;2023-04-29T07:25:58;2.20;;;1.15;;
26989;SDS011;14537;47.788;11.858;2023-04-29T07:28:35;0.52;;;0.52;;
26989;SDS011;14537;47.788;11.858;2023-04-29T07:31:01;1.90;;;1.10;;
26989;SDS011;14537;47.788;11.858;2023-04-29T07:33:26;4.15;;;2.25;;
26989;SDS011;14537;47.788;11.858;2023-04-29T07:35:52;2.10;;;1.08;;
26989;SDS011;14537;47.788;11.858;2023-04-29T07:38:18;1.17;;;0.90;;
26989;SDS011;14537;47.788;11.858;2023-04-29T07:40:45;0.80;;;0.70;;
26989;SDS011;14537;47.788;11.858;2023-04-29T07:43:11;3.35;;;0.80;;
26989;SDS011;14537;47.788;11.858;2023-04-29T07:45:36;1.52;;;0.80;;
26989;SDS011;14537;47.788;11.858;2023-04-29T07:48:02;1.80;;;0.80;;
26989;SDS011;14537;47.788;11.858;2023-04-29T07:50:28;1.17;;;0.90;;
26989;SDS011;14537;47.788;11.858;2023-04-29T07:52:53;1.40;;;0.70;;
26989;SDS011;14537;47.788;11.858;2023-04-29T07:55:21;2.00;;;0.80;;
26989;SDS011;14537;47.788;11.858;2023-04-29T07:57:47;2.97;;;0.80;;
26989;SDS011;14537;47.788;11.858;2023-04-29T08:00:13;2.22;;;0.85;;
26989;SDS011;14537;47.788;11.858;2023-04-29T08:02:38;1.35;;;0.80;;
26989;SDS011;14537;47.788;11.858;2023-04-29T08:05:04;1.85;;;1.23;;
26989;SDS011;14537;47.788;11.858;2023-04-29T08:07:30;1.67;;;1.00;;
26989;SDS011;14537;47.788;11.858;2023-04-29T08:09:55;2.83;;;1.00;;
26989;SDS011;14537;47.788;11.858;2023-04-29T08:12:21;1.70;;;1.00;;
26989;SDS011;14537;47.788;11.858;2023-04-29T08:14:47;2.65;;;1.20;;
26989;SDS011;14537;47.788;11.858;2023-04-29T08:17:12;2.03;;;1.40;;
26989;SDS011;14537;47.788;11.858;2023-04-29T08:19:38;2.20;;;1.40;;
26989;SDS011;14537;47.788;11.858;2023-04-29T08:22:03;1.48;;;0.90;;
26989;SDS011;14537;47.788;11.858;2023-04-29T08:24:29;1.27;;;1.10;;
26989;SDS011;14537;47.788;11.858;2023-04-29T08:26:57;0.90;;;0.90;;
26989;SDS011;14537;47.788;11.858;2023-04-29T08:29:23;3.33;;;1.05;;
26989;SDS011;14537;47.788;11.858;2023-04-29T08:31:49;1.20;;;1.00;;
26989;SDS011;14537;47.788;11.858;2023-04-29T08:34:15;1.58;;;1.23;;
26989;SDS011;14537;47.788;11.858;2023-04-29T08:36:40;1.08;;;0.77;;
26989;SDS011;14537;47.788;11.858;2023-04-29T08:39:06;3.00;;;0.98;;
26989;SDS011;14537;47.788;11.858;2023-04-29T08:41:31;1.60;;;1.00;;
26989;SDS011;14537;47.788;11.858;2023-04-29T08:43:58;1.20;;;1.00;;
26989;SDS011;14537;47.788;11.858;2023-04-29T08:46:25;1.73;;;1.10;;
26989;SDS011;14537;47.788;11.858;2023-04-29T08:48:51;0.85;;;0.68;;
26989;SDS011;14537;47.788;11.858;2023-04-29T08:51:17;4.07;;;1.15;;
26989;SDS011;14537;47.788;11.858;2023-04-29T08:53:43;1.02;;;0.90;;
26989;SDS011;14537;47.788;11.858;2023-04-29T08:56:12;2.72;;;0.95;;
26989;SDS011;14537;47.788;11.858;2023-04-29T08:58:44;0.88;;;0.70;;
26989;SDS011;14537;47.788;11.858;2023-04-29T09:01:10;1.48;;;0.70;;
26989;SDS011;14537;47.788;11.858;2023-04-29T09:03:42;1.50;;;0.95;;
26989;SDS011;14537;47.788;11.858;2023-04-29T09:06:19;1.00;;;0.90;;
26989;SDS011;14537;47.788;11.858;2023-04-29T09:08:45;1.38;;;0.80;;
26989;SDS011;14537;47.788;11.858;2023-04-29T09:11:11;3.38;;;1.00;;
26989;SDS011;14537;47.788;11.858;2023-04-29T09:13:37;1.70;;;0.95;;
26989;SDS011;14537;47.788;11.858;2023-04-29T09:16:03;3.45;;;1.65;;
26989;SDS011;14537;47.788;11.858;2023-04-29T09:23:38;0.80;;;0.77;;
26989;SDS011;14537;47.788;11.858;2023-04-29T09:26:03;2.63;;;0.90;;
26989;SDS011;14537;47.788;11.858;2023-04-29T09:28:29;1.45;;;0.98;;
26989;SDS011;14537;47.788;11.858;2023-04-29T09:30:55;2.33;;;1.05;;
26989;SDS011;14537;47.788;11.858;2023-04-29T09:33:20;1.05;;;0.80;;
26989;SDS011;14537;47.788;11.858;2023-04-29T09:35:46;2.03;;;0.80;;
26989;SDS011;14537;47.788;11.858;2023-04-29T09:38:13;0.73;;;0.73;;
26989;SDS011;14537;47.788;11.858;2023-04-29T09:40:40;0.68;;;0.50;;
26989;SDS011;14537;47.788;11.858;2023-04-29T09:43:10;1.30;;;0.70;;
26989;SDS011;14537;47.788;11.858;2023-04-29T09:45:39;1.15;;;0.57;;
26989;SDS011;14537;47.788;11.858;2023-04-29T09:48:07;0.57;;;0.52;;
26989;SDS011;14537;47.788;11.858;2023-04-29T09:50:34;0.93;;;0.93;;
26989;SDS011;14537;47.788;11.858;2023-04-29T09:53:06;2.50;;;2.13;;
26989;SDS011;14537;47.788;11.858;2023-04-29T09:55:56;1.27;;;0.90;;
26989;SDS011;14537;47.788;11.858;2023-04-29T09:58:26;2.53;;;1.88;;
26989;SDS011;14537;47.788;11.858;2023-04-29T10:01:01;1.60;;;1.05;;
26989;SDS011;14537;47.788;11.858;2023-04-29T10:03:34;0.68;;;0.60;;
26989;SDS011;14537;47.788;11.858;2023-04-29T10:06:02;0.73;;;0.70;;
26989;SDS011;14537;47.788;11.858;2023-04-29T10:08:29;1.40;;;0.82;;
26989;SDS011;14537;47.788;11.858;2023-04-29T10:10:59;0.98;;;0.88;;
26989;SDS011;14537;47.788;11.858;2023-04-29T10:13:26;1.55;;;0.80;;
26989;SDS011;14537;47.788;11.858;2023-04-29T10:18:36;1.27;;;0.70;;
26989;SDS011;14537;47.788;11.858;2023-04-29T10:21:07;0.95;;;0.60;;
26989;SDS011;14537;47.788;11.858;2023-04-29T10:23:33;0.63;;;0.60;;
26989;SDS011;14537;47.788;11.858;2023-04-29T10:26:01;1.02;;;0.57;;
26989;SDS011;14537;47.788;11.858;2023-04-29T10:28:29;2.97;;;0.73;;
26989;SDS011;14537;47.788;11.858;2023-04-29T10:30:57;1.27;;;0.60;;
26989;SDS011;14537;47.788;11.858;2023-04-29T10:33:32;1.67;;;0.70;;
26989;SDS011;14537;47.788;11.858;2023-04-29T10:35:59;0.50;;;0.50;;
26989;SDS011;14537;47.788;11.858;2023-04-29T10:41:07;0.40;;;0.40;;
26989;SDS011;14537;47.788;11.858;2023-04-29T10:43:37;1.42;;;0.70;;
26989;SDS011;14537;47.788;11.858;2023-04-29T10:46:16;0.40;;;0.40;;
26989;SDS011;14537;47.788;11.858;2023-04-29T10:48:47;2.15;;;0.50;;
26989;SDS011;14537;47.788;11.858;2023-04-29T10:51:47;2.15;;;0.40;;
26989;SDS011;14537;47.788;11.858;2023-04-29T10:54:08;1.23;;;0.57;;
26989;SDS011;14537;47.788;11.858;2023-04-29T10:59:04;2.42;;;0.80;;
26989;SDS011;14537;47.788;11.858;2023-04-29T11:01:39;2.40;;;0.63;;
26989;SDS011;14537;47.788;11.858;2023-04-29T11:04:06;0.95;;;0.55;;
26989;SDS011;14537;47.788;11.858;2023-04-29T11:08:59;2.30;;;0.65;;
26989;SDS011;14537;47.788;11.858;2023-04-29T11:11:26;0.95;;;0.80;;
26989;SDS011;14537;47.788;11.858;2023-04-29T11:14:05;2.38;;;0.70;;
26989;SDS011;14537;47.788;11.858;2023-04-29T11:16:34;0.93;;;0.63;;
26989;SDS011;14537;47.788;11.858;2023-04-29T11:19:05;5.10;;;0.85;;
26989;SDS011;14537;47.788;11.858;2023-04-29T11:21:36;0.98;;;0.77;;
26989;SDS011;14537;47.788;11.858;2023-04-29T11:24:03;1.67;;;0.63;;
26989;SDS011;14537;47.788;11.858;2023-04-29T11:26:33;1.05;;;0.70;;
26989;SDS011;14537;47.788;11.858;2023-04-29T11:28:59;0.60;;;0.60;;
26989;SDS011;14537;47.788;11.858;2023-04-29T11:31:34;0.50;;;0.50;;
26989;SDS011;14537;47.788;11.858;2023-04-29T11:34:00;2.55;;;0.60;;
26989;SDS011;14537;47.788;11.858;2023-04-29T11:36:27;0.40;;;0.40;;
26989;SDS011;14537;47.788;11.858;2023-04-29T11:38:56;0.70;;;0.50;;
26989;SDS011;14537;47.788;11.858;2023-04-29T11:41:23;0.82;;;0.65;;
26989;SDS011;14537;47.788;11.858;2023-04-29T11:43:56;0.55;;;0.55;;
26989;SDS011;14537;47.788;11.858;2023-04-29T11:46:23;0.50;;;0.50;;
26989;SDS011;14537;47.788;11.858;2023-04-29T11:48:49;0.50;;;0.50;;
26989;SDS011;14537;47.788;11.858;2023-04-29T11:51:15;0.65;;;0.55;;
26989;SDS011;14537;47.788;11.858;2023-04-29T11:53:43;2.33;;;0.52;;
26989;SDS011;14537;47.788;11.858;2023-04-29T11:56:09;1.65;;;0.77;;
26989;SDS011;14537;47.788;11.858;2023-04-29T11:58:35;2.50;;;1.00;;
26989;SDS011;14537;47.788;11.858;2023-04-29T12:01:02;1.05;;;0.50;;
26989;SDS011;14537;47.788;11.858;2023-04-29T12:03:28;0.50;;;0.50;;
26989;SDS011;14537;47.788;11.858;2023-04-29T12:05:56;0.93;;;0.68;;
26989;SDS011;14537;47.788;11.858;2023-04-29T12:08:25;2.85;;;0.68;;
26989;SDS011;14537;47.788;11.858;2023-04-29T12:10:56;1.77;;;0.60;;
26989;SDS011;14537;47.788;11.858;2023-04-29T12:13:23;0.35;;;0.35;;
26989;SDS011;14537;47.788;11.858;2023-04-29T12:15:50;4.65;;;1.65;;
26989;SDS011;14537;47.788;11.858;2023-04-29T12:18:17;0.85;;;0.47;;
26989;SDS011;14537;47.788;11.858;2023-04-29T12:20:43;0.50;;;0.50;;
26989;SDS011;14537;47.788;11.858;2023-04-29T12:23:14;1.23;;;0.80;;
26989;SDS011;14537;47.788;11.858;2023-04-29T12:25:46;2.08;;;0.60;;
26989;SDS011;14537;47.788;11.858;2023-04-29T12:28:17;0.70;;;0.60;;
26989;SDS011;14537;47.788;11.858;2023-04-29T12:30:44;1.05;;;0.80;;
26989;SDS011;14537;47.788;11.858;2023-04-29T12:33:31;0.80;;;0.73;;
26989;SDS011;14537;47.788;11.858;2023-04-29T12:35:58;0.40;;;0.40;;
26989;SDS011;14537;47.788;11.858;2023-04-29T12:38:28;0.70;;;0.60;;
26989;SDS011;14537;47.788;11.858;2023-04-29T12:40:55;1.23;;;0.57;;
26989;SDS011;14537;47.788;11.858;2023-04-29T12:43:29;0.70;;;0.60;;
26989;SDS011;14537;47.788;11.858;2023-04-29T12:46:01;1.05;;;0.50;;
26989;SDS011;14537;47.788;11.858;2023-04-29T12:48:28;0.43;;;0.43;;
26989;SDS011;14537;47.788;11.858;2023-04-29T12:50:55;0.40;;;0.40;;
26989;SDS011;14537;47.788;11.858;2023-04-29T12:53:23;1.75;;;0.98;;
26989;SDS011;14537;47.788;11.858;2023-04-29T12:55:50;3.25;;;0.75;;
26989;SDS011;14537;47.788;11.858;2023-04-29T12:58:16;0.68;;;0.68;;
26989;SDS011;14537;47.788;11.858;2023-04-29T13:00:41;1.17;;;0.60;;
26989;SDS011;14537;47.788;11.858;2023-04-29T13:03:07;0.63;;;0.50;;
26989;SDS011;14537;47.788;11.858;2023-04-29T13:05:33;0.88;;;0.88;;
26989;SDS011;14537;47.788;11.858;2023-04-29T13:07:59;1.52;;;0.70;;
26989;SDS011;14537;47.788;11.858;2023-04-29T13:10:25;2.22;;;0.90;;
26989;SDS011;14537;47.788;11.858;2023-04-29T13:12:52;0.68;;;0.68;;
26989;SDS011;14537;47.788;11.858;2023-04-29T13:15:18;1.08;;;1.02;;
26989;SDS011;14537;47.788;11.858;2023-04-29T13:17:45;1.13;;;0.70;;
26989;SDS011;14537;47.788;11.858;2023-04-29T13:20:11;1.80;;;1.02;;
26989;SDS011;14537;47.788;11.858;2023-04-29T13:22:37;0.60;;;0.60;;
26989;SDS011;14537;47.788;11.858;2023-04-29T13:25:03;4.22;;;0.93;;
26989;SDS011;14537;47.788;11.858;2023-04-29T13:27:29;3.38;;;0.70;;
26989;SDS011;14537;47.788;11.858;2023-04-29T13:29:55;0.98;;;0.63;;
26989;SDS011;14537;47.788;11.858;2023-04-29T13:32:21;0.85;;;0.70;;
26989;SDS011;14537;47.788;11.858;2023-04-29T13:34:51;0.60;;;0.60;;
26989;SDS011;14537;47.788;11.858;2023-04-29T13:37:17;0.80;;;0.60;;
26989;SDS011;14537;47.788;11.858;2023-04-29T13:39:43;0.90;;;0.60;;
26989;SDS011;14537;47.788;11.858;2023-04-29T13:42:09;0.65;;;0.40;;
26989;SDS011;14537;47.788;11.858;2023-04-29T13:44:35;1.08;;;0.40;;
26989;SDS011;14537;47.788;11.858;2023-04-29T13:47:00;2.47;;;0.52;;
26989;SDS011;14537;47.788;11.858;2023-04-29T13:49:27;0.75;;;0.30;;
26989;SDS011;14537;47.788;11.858;2023-04-29T13:51:52;0.45;;;0.45;;
26989;SDS011;14537;47.788;11.858;2023-04-29T13:54:18;0.68;;;0.40;;
26989;SDS011;14537;47.788;11.858;2023-04-29T13:56:45;0.55;;;0.38;;
26989;SDS011;14537;47.788;11.858;2023-04-29T13:59:12;0.20;;;0.20;;
26989;SDS011;14537;47.788;11.858;2023-04-29T14:01:37;0.30;;;0.20;;
26989;SDS011;14537;47.788;11.858;2023-04-29T14:04:03;14.95;;;0.95;;
26989;SDS011;14537;47.788;11.858;2023-04-29T14:06:30;0.30;;;0.25;;
26989;SDS011;14537;47.788;11.858;2023-04-29T14:08:58;2.75;;;0.50;;
26989;SDS011;14537;47.788;11.858;2023-04-29T14:11:24;0.20;;;0.20;;
26989;SDS011;14537;47.788;11.858;2023-04-29T14:13:50;2.00;;;0.63;;
26989;SDS011;14537;47.788;11.858;2023-04-29T14:16:15;0.32;;;0.20;;
26989;SDS011;14537;47.788;11.858;2023-04-29T14:18:41;0.70;;;0.38;;
26989;SDS011;14537;47.788;11.858;2023-04-29T14:21:07;0.38;;;0.30;;
26989;SDS011;14537;47.788;11.858;2023-04-29T14:23:33;1.15;;;0.30;;
26989;SDS011;14537;47.788;11.858;2023-04-29T14:25:58;0.30;;;0.30;;
26989;SDS011;14537;47.788;11.858;2023-04-29T14:28:24;3.17;;;0.40;;
26989;SDS011;14537;47.788;11.858;2023-04-29T14:30:49;3.28;;;0.20;;
26989;SDS011;14537;47.788;11.858;2023-04-29T14:33:15;1.95;;;0.32;;
26989;SDS011;14537;47.788;11.858;2023-04-29T14:35:41;0.68;;;0.30;;
26989;SDS011;14537;47.788;11.858;2023-04-29T14:38:06;0.77;;;0.28;;
26989;SDS011;14537;47.788;11.858;2023-04-29T14:40:32;0.43;;;0.40;;
26989;SDS011;14537;47.788;11.858;2023-04-29T14:42:58;1.17;;;0.40;;
26989;SDS011;14537;47.788;11.858;2023-04-29T14:45:23;1.27;;;0.40;;
26989;SDS011;14537;47.788;11.858;2023-04-29T14:47:49;0.35;;;0.35;;
26989;SDS011;14537;47.788;11.858;2023-04-29T14:50:15;0.75;;;0.50;;